Time;durP1;ratioP1;P1;durP2;ratioP2;P2;SDS_P1;SDS_P2;PMS_P1;PMS_P2;Temp;Humidity;BMP_temperature;BMP_pressure;BME280_temperature;BME280_humidity;BME280_pressure;Samples;Min_cycle;Max_cycle;Signal;HPM_P1;HPM_P2
2022/04/16 00:01:42;;;;;;;10.43;5.22;;;;;;;15.36;54.96;101358.69;4928448;29;20527;-85
2022/04/16 00:04:09;;;;;;;5.93;5.05;;;;;;;15.64;55.33;101403.31;4929494;29;20425;-85
2022/04/16 00:06:37;;;;;;;5.30;4.90;;;;;;;15.22;55.10;101321.72;4928372;29;20142;-85
2022/04/16 00:09:03;;;;;;;7.70;5.03;;;;;;;15.72;55.90;101423.00;4912313;29;20139;-84
2022/04/16 00:11:30;;;;;;;7.05;5.30;;;;;;;15.62;56.11;101408.81;4929238;29;20055;-85
2022/04/16 00:13:57;;;;;;;6.03;5.03;;;;;;;15.27;55.51;101353.38;4912528;29;20474;-83
2022/04/16 00:16:23;;;;;;;12.77;5.32;;;;;;;15.57;54.96;101393.19;4929277;29;20139;-84
2022/04/16 00:18:50;;;;;;;6.25;4.70;;;;;;;15.60;54.25;101384.84;4929149;29;20504;-84
2022/04/16 00:21:17;;;;;;;6.15;5.28;;;;;;;15.60;53.85;101366.13;4927970;29;20135;-85
2022/04/16 00:23:44;;;;;;;5.07;4.40;;;;;;;15.63;54.18;101385.56;4918863;29;20058;-84
2022/04/16 00:26:12;;;;;;;5.13;4.32;;;;;;;15.60;54.69;101376.00;4909070;29;20199;-84
2022/04/16 00:28:39;;;;;;;8.15;5.03;;;;;;;15.43;54.77;101374.13;4908802;29;20092;-84
2022/04/16 00:31:06;;;;;;;6.25;5.05;;;;;;;15.48;55.18;101387.91;4908395;29;20421;-84
2022/04/16 00:33:33;;;;;;;6.88;5.00;;;;;;;15.38;55.29;101382.59;4893281;29;20048;-82
2022/04/16 00:36:00;;;;;;;5.65;5.07;;;;;;;15.46;55.15;101385.38;4908569;29;20083;-85
2022/04/16 00:38:27;;;;;;;5.60;4.95;;;;;;;15.15;55.03;101347.38;4909105;29;20488;-85
2022/04/16 00:40:55;;;;;;;8.13;5.28;;;;;;;14.92;55.38;101322.84;4908753;29;20140;-83
2022/04/16 00:43:27;;;;;;;5.43;4.53;;;;;;;15.28;55.11;101392.50;4908783;29;20526;-84
2022/04/16 00:45:55;;;;;;;5.15;4.50;;;;;;;15.26;55.52;101389.13;4908842;29;20479;-85
2022/04/16 00:48:23;;;;;;;8.15;5.07;;;;;;;15.18;55.63;101376.50;4909211;29;20307;-84
2022/04/16 00:50:51;;;;;;;5.68;4.55;;;;;;;15.16;56.04;101373.97;4908883;29;20055;-84
2022/04/16 00:53:18;;;;;;;6.78;5.03;;;;;;;15.13;56.00;101368.91;4908666;29;20474;-85
2022/04/16 00:55:44;;;;;;;5.10;4.70;;;;;;;15.16;56.40;101376.63;4910142;29;20139;-85
2022/04/16 00:58:11;;;;;;;6.57;5.30;;;;;;;15.09;56.21;101354.16;4908788;29;20138;-85
2022/04/16 01:00:38;;;;;;;8.50;4.75;;;;;;;15.04;56.67;101345.72;4908681;29;20056;-84
2022/04/16 01:03:06;;;;;;;7.57;5.07;;;;;;;15.22;56.31;101377.03;4908009;29;20071;-83
2022/04/16 01:05:32;;;;;;;8.07;4.78;;;;;;;15.07;56.70;101358.81;4909644;29;20056;-84
2022/04/16 01:08:02;;;;;;;5.25;4.75;;;;;;;14.77;56.15;101310.97;4909629;29;20188;-85
2022/04/16 01:10:31;;;;;;;6.90;4.82;;;;;;;15.07;56.27;101369.53;4908505;29;20052;-84
2022/04/16 01:13:05;;;;;;;7.53;4.47;;;;;;;14.73;56.01;101299.69;4908704;29;20111;-84
2022/04/16 01:15:32;;;;;;;5.80;4.28;;;;;;;15.20;55.77;101373.69;4909786;29;20154;-84
2022/04/16 01:18:02;;;;;;;4.45;4.00;;;;;;;15.20;55.85;101371.03;4908241;29;20095;-84
2022/04/16 01:20:33;;;;;;;6.30;3.70;;;;;;;15.20;55.65;101371.03;4910136;29;20435;-84
2022/04/16 01:23:01;;;;;;;6.65;4.60;;;;;;;14.96;55.90;101340.28;4911967;29;20048;-85
2022/04/16 01:25:32;;;;;;;5.15;4.65;;;;;;;15.09;55.83;101364.00;4912002;29;20196;-83
2022/04/16 01:28:00;;;;;;;5.30;4.80;;;;;;;15.09;56.27;101372.88;4927592;29;20062;-85
2022/04/16 01:30:27;;;;;;;5.95;4.30;;;;;;;14.75;56.44;101317.28;4928452;29;20058;-84
2022/04/16 01:32:54;;;;;;;7.45;4.68;;;;;;;14.99;55.76;101356.03;4911563;29;20055;-84
2022/04/16 01:35:21;;;;;;;6.28;3.90;;;;;;;14.90;55.27;101339.06;4943476;28;20080;-84
2022/04/16 01:37:48;;;;;;;4.85;4.32;;;;;;;15.00;55.87;101363.06;4927453;29;20142;-84
2022/04/16 01:40:15;;;;;;;7.65;4.13;;;;;;;14.56;55.27;101290.63;4927108;29;20043;-84
2022/04/16 01:42:46;;;;;;;4.90;4.30;;;;;;;14.91;55.32;101337.22;4927359;29;20062;-84
2022/04/16 01:45:18;;;;;;;5.27;4.00;;;;;;;15.04;54.56;101348.41;4914751;29;20085;-84
2022/04/16 01:47:45;;;;;;;4.35;3.95;;;;;;;15.12;54.62;101367.25;4915060;29;20797;-84
2022/04/16 01:50:12;;;;;;;5.75;3.97;;;;;;;14.87;55.51;101333.13;4930394;29;20054;-85
2022/04/16 01:52:41;;;;;;;4.25;3.75;;;;;;;14.79;55.21;101338.38;4915171;29;20070;-84
2022/04/16 01:55:09;;;;;;;6.07;4.45;;;;;;;14.94;55.50;101377.00;4946428;28;20048;-83
2022/04/16 01:57:36;;;;;;;5.05;4.03;;;;;;;14.79;56.11;101375.81;4930346;29;20516;-84
2022/04/16 02:00:06;;;;;;;5.95;4.70;;;;;;;14.23;56.22;101282.13;4945747;28;20051;-84
2022/04/16 02:02:35;;;;;;;5.32;4.78;;;;;;;13.17;56.33;101113.13;4930422;29;20126;-84
2022/04/16 02:05:02;;;;;;;6.13;4.50;;;;;;;14.58;56.61;101352.78;4930592;29;20052;-84
2022/04/16 02:07:29;;;;;;;9.02;4.53;;;;;;;14.79;55.98;101376.66;4930539;29;20134;-85
2022/04/16 02:09:56;;;;;;;6.90;4.40;;;;;;;14.69;55.87;101360.63;4929997;29;20473;-84
2022/04/16 02:12:22;;;;;;;5.30;4.80;;;;;;;14.70;56.25;101369.50;4930436;29;20379;-84
2022/04/16 02:14:49;;;;;;;7.75;5.50;;;;;;;14.56;56.20;101344.06;4930543;29;20048;-84
2022/04/16 02:17:15;;;;;;;9.43;5.40;;;;;;;14.49;56.54;101350.94;4930423;29;20047;-84
2022/04/16 02:19:43;;;;;;;5.97;5.28;;;;;;;14.33;56.46;101320.31;4931305;29;20046;-84
2022/04/16 02:22:11;;;;;;;8.43;4.72;;;;;;;14.30;56.71;101312.59;4930174;29;20056;-84
2022/04/16 02:24:39;;;;;;;10.70;5.55;;;;;;;14.53;56.73;101355.00;4913294;29;20558;-84
2022/04/16 02:27:06;;;;;;;7.50;5.43;;;;;;;14.35;56.70;101332.72;4910977;29;20052;-84
2022/04/16 02:29:34;;;;;;;8.45;4.75;;;;;;;13.49;57.28;101209.84;4910786;29;20048;-84
2022/04/16 02:32:03;;;;;;;10.43;5.53;;;;;;;14.18;57.40;101329.78;4911830;29;20048;-84
2022/04/16 02:34:29;;;;;;;8.13;5.32;;;;;;;14.27;57.38;101357.44;4911070;29;20159;-84
2022/04/16 02:36:58;;;;;;;6.38;5.35;;;;;;;14.00;57.50;101310.94;4910964;29;20056;-84
2022/04/16 02:39:25;;;;;;;5.90;5.18;;;;;;;14.28;57.90;101346.63;4911872;29;20052;-84
2022/04/16 02:41:51;;;;;;;8.05;5.47;;;;;;;14.12;57.80;101314.31;4910947;29;20048;-84
2022/04/16 02:47:06;;;;;;;8.38;4.97;;;;;;;13.66;57.85;101259.81;4911680;29;20331;-84
2022/04/16 02:49:39;;;;;;;6.95;5.10;;;;;;;13.97;57.99;101321.06;4911906;29;20628;-84
2022/04/16 02:52:09;;;;;;;5.93;4.68;;;;;;;13.93;58.17;101322.31;4911552;29;20490;-84
2022/04/16 02:54:37;;;;;;;5.57;5.00;;;;;;;13.85;57.48;101301.69;4910173;29;20511;-83
2022/04/16 02:57:04;;;;;;;5.60;4.60;;;;;;;13.90;57.21;101316.28;4910494;29;20530;-85
2022/04/16 02:59:33;;;;;;;5.43;4.75;;;;;;;14.06;56.90;101336.25;4910485;29;20074;-84
2022/04/16 03:02:00;;;;;;;5.20;4.68;;;;;;;13.71;57.41;101284.25;4911428;29;20083;-84
2022/04/16 03:04:27;;;;;;;7.68;4.50;;;;;;;14.01;56.77;101333.16;4894288;29;20498;-84
2022/04/16 03:06:53;;;;;;;4.45;3.88;;;;;;;14.07;57.08;101349.44;4911635;29;20052;-84
2022/04/16 03:09:20;;;;;;;5.82;3.72;;;;;;;13.67;56.40;101272.19;4909939;29;20232;-84
2022/04/16 03:11:46;;;;;;;4.45;4.00;;;;;;;13.68;56.07;101263.19;4910110;29;20080;-84
2022/04/16 03:19:45;;;;;;;6.07;3.88;;;;;;;13.99;55.62;101295.06;4911246;29;20056;-84
2022/04/16 03:22:13;;;;;;;4.57;3.88;;;;;;;14.05;55.91;101316.72;4911047;29;20059;-84
2022/04/16 03:24:39;;;;;;;5.93;3.92;;;;;;;14.13;55.70;101321.34;4927737;29;20068;-84
2022/04/16 03:27:06;;;;;;;4.65;4.03;;;;;;;14.10;56.19;101324.28;4928565;29;20574;-83
2022/04/16 03:29:34;;;;;;;6.65;4.35;;;;;;;14.12;56.01;101322.31;4928810;29;20056;-84
2022/04/16 03:32:00;;;;;;;5.68;4.07;;;;;;;13.75;55.76;101266.97;4944622;28;20094;-84
2022/04/16 03:34:27;;;;;;;5.60;3.78;;;;;;;13.94;56.16;101302.66;4928502;29;20127;-84
2022/04/16 03:36:54;;;;;;;5.30;4.07;;;;;;;13.97;56.25;101316.56;4928878;29;20044;-84
2022/04/16 03:39:21;;;;;;;6.75;3.88;;;;;;;13.72;55.99;101280.63;4928354;29;20055;-83
2022/04/16 03:41:48;;;;;;;7.93;4.45;;;;;;;13.52;55.88;101246.91;4928716;29;20047;-84
2022/04/16 03:44:15;;;;;;;9.13;3.72;;;;;;;13.80;56.00;101301.25;4944439;28;20083;-84
2022/04/16 03:46:42;;;;;;;4.78;3.90;;;;;;;13.79;56.43;101311.09;4928944;29;20268;-84
2022/04/16 03:49:08;;;;;;;3.97;3.58;;;;;;;13.88;56.03;101318.28;4928488;29;20441;-84
2022/04/16 03:51:35;;;;;;;5.45;4.30;;;;;;;13.50;56.01;101265.72;4928850;29;20052;-84
2022/04/16 04:02:16;;;;;;;6.30;4.40;;;;;;;13.90;55.96;101329.63;4929815;29;20057;-83
2022/04/16 04:04:43;;;;;;;3.95;3.38;;;;;;;13.66;56.15;101287.34;4930010;29;20059;-84
2022/04/16 04:07:10;;;;;;;4.97;3.50;;;;;;;13.88;56.12;101318.28;4928051;29;20147;-83
2022/04/16 04:09:38;;;;;;;5.95;4.13;;;;;;;13.71;56.09;101299.41;4928181;29;20056;-84
2022/04/16 04:12:12;;;;;;;7.22;3.78;;;;;;;13.41;56.19;101250.56;4928220;29;20067;-84
2022/04/16 04:14:40;;;;;;;4.22;3.65;;;;;;;13.81;55.32;101316.28;4927977;29;20062;-83
2022/04/16 04:17:08;;;;;;;6.70;3.50;;;;;;;13.86;54.49;101330.91;4912421;29;20054;-84
2022/04/16 04:19:40;;;;;;;7.75;3.70;;;;;;;13.90;54.51;101340.28;4928139;29;20086;-84
2022/04/16 04:22:09;;;;;;;3.22;2.92;;;;;;;13.84;53.70;101321.34;4927909;29;20106;-84
2022/04/16 04:24:37;;;;;;;7.10;3.55;;;;;;;13.32;54.25;101251.38;4912272;29;20059;-84
2022/04/16 04:27:04;;;;;;;3.90;3.47;;;;;;;13.85;54.51;101345.22;4909339;29;20059;-84
2022/04/16 04:29:30;;;;;;;6.07;3.38;;;;;;;13.92;53.91;101350.00;4909145;29;20138;-84
2022/04/16 04:31:57;;;;;;;5.07;3.67;;;;;;;13.85;52.94;101339.88;4915613;29;20076;-84
2022/04/16 04:34:24;;;;;;;3.70;3.40;;;;;;;13.72;52.66;101317.13;4918190;29;20063;-84
2022/04/16 04:36:51;;;;;;;7.20;3.55;;;;;;;13.80;53.54;101342.13;4911254;29;20048;-84
2022/04/16 04:39:22;;;;;;;;;;;;;;;13.90;53.76;101372.31;4915690;29;20272;-84
2022/04/16 04:41:49;;;;;;;3.95;3.35;;;;;;;13.71;53.90;101337.63;4911523;29;19923;-83
2022/04/16 04:44:16;;;;;;;7.10;3.35;;;;;;;13.45;54.15;101299.97;4909896;29;20054;-84
2022/04/16 04:46:42;;;;;;;4.03;3.35;;;;;;;13.36;54.54;101285.63;4893414;29;20070;-84
2022/04/16 04:49:11;;;;;;;7.30;4.25;;;;;;;13.70;54.69;101330.59;4908982;29;20398;-84
2022/04/16 04:51:39;;;;;;;4.72;3.38;;;;;;;13.86;55.09;101360.25;4908809;29;20367;-84
2022/04/16 04:54:07;;;;;;;7.25;3.70;;;;;;;13.65;54.26;101338.19;4909969;29;20059;-84
2022/04/16 04:56:35;;;;;;;3.65;3.35;;;;;;;13.64;53.71;101336.47;4908264;29;20048;-82
2022/04/16 04:59:03;;;;;;;4.00;3.70;;;;;;;13.78;54.16;101360.09;4908644;29;20056;-85
2022/04/16 05:01:29;;;;;;;5.90;3.55;;;;;;;13.27;54.36;101291.78;4909647;29;20052;-84
2022/04/16 05:03:56;;;;;;;5.07;4.00;;;;;;;13.69;54.92;101366.28;4908553;29;20048;-84
2022/04/16 05:06:23;;;;;;;4.50;3.75;;;;;;;13.41;54.70;101319.91;4908297;29;20052;-85
2022/04/16 05:08:51;;;;;;;5.32;4.15;;;;;;;13.66;55.27;101364.72;4891664;29;20547;-84
2022/04/16 05:11:17;;;;;;;6.75;4.22;;;;;;;13.57;55.95;101346.03;4906609;29;20048;-85
2022/04/16 05:13:44;;;;;;;5.20;3.80;;;;;;;13.82;55.75;101388.19;4925500;29;20055;-84
2022/04/16 05:16:12;;;;;;;5.53;4.60;;;;;;;13.90;55.83;101382.16;4912909;29;20548;-85
2022/04/16 05:18:42;;;;;;;4.70;4.20;;;;;;;13.85;56.44;101384.41;4910173;29;20052;-84
2022/04/16 05:21:09;;;;;;;6.93;4.82;;;;;;;13.92;56.11;101390.88;4917208;29;20070;-83
2022/04/16 05:23:39;;;;;;;6.97;4.30;;;;;;;13.37;56.52;101300.63;4928756;29;20055;-84
2022/04/16 05:26:11;;;;;;;7.00;4.20;;;;;;;13.82;56.55;101382.88;4929060;29;20138;-83
2022/04/16 05:28:39;;;;;;;9.05;5.15;;;;;;;13.98;56.34;101408.16;4912741;29;20234;-84
2022/04/16 05:31:06;;;;;;;8.15;4.47;;;;;;;13.86;56.11;101389.63;4898858;29;20318;-84
2022/04/16 05:36:19;;;;;;;5.45;4.95;;;;;;;13.78;55.97;101364.59;4930078;29;20530;-84
2022/04/16 05:38:46;;;;;;;8.85;5.10;;;;;;;13.92;55.39;101380.22;4929068;29;20250;-84
2022/04/16 05:41:12;;;;;;;5.47;4.15;;;;;;;14.00;53.08;101375.00;4913649;29;20082;-84
2022/04/16 05:43:39;;;;;;;5.22;3.67;;;;;;;13.88;53.16;101344.09;4909588;29;20044;-84
2022/04/16 05:46:06;;;;;;;6.45;4.10;;;;;;;14.29;53.45;101393.69;4925259;29;20058;-84
2022/04/16 05:48:33;;;;;;;5.68;3.60;;;;;;;14.13;52.95;101358.72;4910345;29;20498;-83
2022/04/16 05:51:00;;;;;;;6.10;3.50;;;;;;;14.46;52.51;101401.97;4925473;29;20513;-83
2022/04/16 05:53:26;;;;;;;5.05;4.00;;;;;;;14.58;51.21;101384.84;4910983;29;20494;-83
2022/04/16 05:55:53;;;;;;;6.10;3.85;;;;;;;14.68;50.59;101392.84;4918419;29;20058;-84
2022/04/16 05:58:20;;;;;;;3.95;3.25;;;;;;;14.72;49.92;101375.53;4910509;29;20270;-83
2022/04/16 06:00:46;;;;;;;4.15;3.63;;;;;;;14.93;50.18;101404.75;4909438;29;20079;-83
2022/04/16 06:03:18;;;;;;;;;;;;;;;14.94;49.92;101403.75;4910072;29;20063;-84
2022/04/16 06:05:46;;;;;;;6.10;3.80;;;;;;;14.69;49.49;101339.25;4913183;29;19927;-83
2022/04/16 06:08:12;;;;;;;4.57;4.18;;;;;;;15.23;49.58;101405.47;4912838;29;20065;-84
2022/04/16 06:10:39;;;;;;;4.22;3.63;;;;;;;15.24;49.12;101397.28;4912237;29;20407;-83
2022/04/16 06:13:08;;;;;;;4.43;3.97;;;;;;;15.23;48.45;101384.09;4913293;29;20055;-84
2022/04/16 06:15:35;;;;;;;5.88;4.13;;;;;;;15.18;48.94;101363.97;4918409;29;20070;-84
2022/04/16 06:18:02;;;;;;;4.13;3.72;;;;;;;15.52;48.60;101400.81;4910166;29;20760;-84
2022/04/16 06:20:29;;;;;;;4.13;3.70;;;;;;;15.43;48.06;101384.81;4912049;29;20051;-84
2022/04/16 06:22:55;;;;;;;4.85;4.35;;;;;;;15.59;47.89;101391.22;4929298;29;20811;-84
2022/04/16 06:25:22;;;;;;;4.40;3.42;;;;;;;15.70;47.31;101408.91;4928078;29;20134;-84
2022/04/16 06:27:49;;;;;;;6.97;3.67;;;;;;;15.37;47.44;101338.13;4927607;29;20050;-84
2022/04/16 06:30:15;;;;;;;6.30;3.72;;;;;;;15.80;47.18;101392.78;4916796;29;20464;-83
2022/04/16 06:32:42;;;;;;;4.18;3.38;;;;;;;15.45;46.54;101335.53;4912662;29;20158;-84
2022/04/16 06:35:10;;;;;;;4.70;4.20;;;;;;;15.97;46.30;101400.03;4911991;29;20449;-81
2022/04/16 06:37:38;;;;;;;6.85;4.30;;;;;;;15.51;46.35;101326.91;4908109;29;20044;-84
2022/04/16 06:40:06;;;;;;;6.43;4.72;;;;;;;15.13;46.40;101240.56;4920339;29;20161;-83
2022/04/16 06:42:33;;;;;;;9.23;4.05;;;;;;;15.67;46.65;101338.75;4910653;29;20044;-84
2022/04/16 06:44:59;;;;;;;5.72;4.70;;;;;;;15.87;46.41;101356.38;4909615;29;20062;-84
2022/04/16 06:47:26;;;;;;;5.30;4.88;;;;;;;16.17;46.68;101399.88;4909734;29;20048;-84
2022/04/16 06:49:53;;;;;;;7.60;5.22;;;;;;;16.02;46.80;101356.72;4924583;29;20145;-84
2022/04/16 06:52:19;;;;;;;6.13;4.78;;;;;;;16.27;46.11;101376.50;4908751;29;20078;-83
2022/04/16 06:54:46;;;;;;;6.47;5.40;;;;;;;15.79;45.71;101300.09;4924413;29;20048;-83
2022/04/16 06:57:13;;;;;;;8.20;5.20;;;;;;;16.21;45.98;101366.41;4908768;29;20055;-84
2022/04/16 06:59:41;;;;;;;8.20;4.88;;;;;;;16.32;45.86;101378.72;4908450;29;20059;-84
2022/04/16 07:02:09;;;;;;;6.78;5.55;;;;;;;15.28;45.91;101202.59;4908509;29;20063;-83
2022/04/16 07:04:37;;;;;;;12.63;6.20;;;;;;;16.54;45.65;101390.78;4908793;29;20060;-84
2022/04/16 07:07:04;;;;;;;6.15;5.43;;;;;;;16.49;45.10;101360.94;4924405;29;20064;-84
2022/04/16 07:09:38;;;;;;;6.70;5.25;;;;;;;15.97;45.29;101281.34;4908068;29;20058;-84
2022/04/16 07:12:07;;;;;;;6.07;5.45;;;;;;;16.28;45.41;101327.28;4908250;29;20059;-84
2022/04/16 07:14:34;;;;;;;7.50;5.70;;;;;;;16.65;46.27;101377.13;4908450;29;20087;-83
2022/04/16 07:17:01;;;;;;;8.45;7.40;;;;;;;16.66;45.93;101382.34;4924070;29;20171;-84
2022/04/16 07:19:31;;;;;;;9.15;7.35;;;;;;;16.41;45.43;101311.66;4908240;29;20056;-84
2022/04/16 07:21:58;;;;;;;11.35;9.18;;;;;;;16.77;45.56;101365.16;4923747;29;20066;-83
2022/04/16 07:24:25;;;;;;;10.15;7.15;;;;;;;16.91;45.57;101374.47;4922344;29;20051;-83
2022/04/16 07:26:54;;;;;;;10.82;6.95;;;;;;;16.69;45.54;101324.88;4928281;29;20048;-84
2022/04/16 07:29:21;;;;;;;9.48;6.72;;;;;;;16.86;45.60;101358.00;4926773;29;20513;-83
2022/04/16 07:31:48;;;;;;;10.98;7.18;;;;;;;17.08;44.71;101370.03;4942860;28;20090;-84
2022/04/16 07:34:15;;;;;;;11.68;7.80;;;;;;;16.64;45.13;101295.03;4927126;29;20111;-84
2022/04/16 07:36:43;;;;;;;10.15;6.85;;;;;;;17.14;45.00;101382.81;4928134;29;20158;-84
2022/04/16 07:39:10;;;;;;;9.00;7.30;;;;;;;16.95;45.26;101348.19;4928188;29;20056;-84
2022/04/16 07:41:37;;;;;;;10.60;7.60;;;;;;;17.05;44.99;101362.31;4927099;29;20059;-84
2022/04/16 07:44:04;;;;;;;7.93;6.45;;;;;;;17.20;44.74;101392.88;4943031;28;20142;-84
2022/04/16 07:46:35;;;;;;;7.53;6.65;;;;;;;16.97;44.65;101354.22;4919927;29;20377;-84
2022/04/16 07:49:04;;;;;;;11.02;6.88;;;;;;;17.27;44.53;101401.97;4911073;29;20051;-85
2022/04/16 07:51:31;;;;;;;8.45;6.75;;;;;;;17.37;44.82;101404.53;4928443;29;20476;-84
2022/04/16 07:53:58;;;;;;;8.23;6.15;;;;;;;17.45;44.76;101403.72;4928136;29;20381;-84
2022/04/16 07:56:25;;;;;;;7.80;6.35;;;;;;;17.36;44.99;101385.94;4926988;29;20063;-83
2022/04/16 07:58:54;;;;;;;8.57;6.53;;;;;;;17.39;44.51;101373.00;4926572;29;20071;-84
2022/04/16 08:01:22;;;;;;;10.57;6.15;;;;;;;17.26;43.94;101338.59;4941652;29;20101;-83
2022/04/16 08:03:54;;;;;;;7.57;6.03;;;;;;;17.75;44.34;101385.38;4921432;29;20478;-84
2022/04/16 08:06:20;;;;;;;9.45;5.85;;;;;;;17.25;43.94;101288.59;4916173;29;20056;-84
2022/04/16 08:08:47;;;;;;;8.60;5.80;;;;;;;17.85;43.81;101375.34;4922981;29;20059;-83
2022/04/16 08:11:14;;;;;;;5.50;4.93;;;;;;;17.97;43.25;101367.81;4893026;29;20569;-84
2022/04/16 08:13:40;;;;;;;7.45;5.40;;;;;;;18.11;42.83;101380.59;4923369;29;20146;-83
2022/04/16 08:16:07;;;;;;;7.78;5.07;;;;;;;17.69;42.37;101307.16;4912161;29;20090;-83
2022/04/16 08:18:33;;;;;;;7.60;5.13;;;;;;;18.08;42.54;101376.41;4922442;29;20134;-84
2022/04/16 08:21:00;;;;;;;10.15;5.05;;;;;;;17.93;42.20;101332.38;4912268;29;20127;-84
2022/04/16 08:23:27;;;;;;;5.97;4.13;;;;;;;18.30;41.97;101387.47;4919561;29;20576;-83
2022/04/16 08:25:56;;;;;;;10.43;5.03;;;;;;;18.36;41.74;101386.81;4932019;29;20051;-83
2022/04/16 08:28:22;;;;;;;7.03;5.00;;;;;;;18.32;42.00;101382.78;4929175;29;20062;-83
2022/04/16 08:30:50;;;;;;;6.97;4.50;;;;;;;18.31;42.74;101381.09;4911934;29;20135;-83
2022/04/16 08:33:17;;;;;;;7.15;4.97;;;;;;;18.40;41.83;101374.72;4905884;29;20052;-83
2022/04/16 08:35:45;;;;;;;8.00;5.20;;;;;;;18.40;41.38;101358.59;4907106;29;20054;-83
2022/04/16 08:38:12;;;;;;;5.28;4.78;;;;;;;18.17;41.66;101317.28;4891136;29;20327;-83
2022/04/16 08:40:39;;;;;;;7.90;5.68;;;;;;;18.45;41.39;101367.00;4907279;29;20299;-82
2022/04/16 08:43:12;;;;;;;12.25;6.55;;;;;;;18.51;41.39;101374.34;4908574;29;20079;-84
2022/04/16 08:45:40;;;;;;;10.68;5.90;;;;;;;18.51;41.09;101366.28;4908648;29;20085;-84
2022/04/16 08:48:08;;;;;;;7.13;5.68;;;;;;;18.53;41.12;101364.28;4907167;29;20139;-83
2022/04/16 08:50:37;;;;;;;7.25;5.10;;;;;;;18.78;40.82;101380.41;4907621;29;20052;-84
2022/04/16 08:53:03;;;;;;;8.80;5.43;;;;;;;18.78;41.06;101388.47;4910516;29;20486;-83
2022/04/16 08:55:30;;;;;;;8.95;5.97;;;;;;;18.87;41.18;101386.63;4913021;29;20052;-83
2022/04/16 08:57:57;;;;;;;13.75;6.50;;;;;;;18.96;41.50;101399.88;4910945;29;20104;-83
2022/04/16 09:00:24;;;;;;;11.20;5.93;;;;;;;19.06;40.65;101390.78;4910680;29;20159;-82
2022/04/16 09:02:53;;;;;;;9.30;5.82;;;;;;;18.52;41.20;101298.09;4911992;29;20048;-84
2022/04/16 09:05:20;;;;;;;10.23;5.68;;;;;;;19.06;41.28;101385.38;4911026;29;20056;-84
2022/04/16 09:07:52;;;;;;;6.35;4.97;;;;;;;19.11;41.64;101385.72;4911044;29;20615;-83
2022/04/16 09:10:20;;;;;;;7.05;5.53;;;;;;;19.19;41.41;101385.66;4910401;29;20063;-84
2022/04/16 09:12:53;;;;;;;10.10;6.63;;;;;;;19.24;41.68;101390.53;4916523;29;20048;-83
2022/04/16 09:15:20;;;;;;;11.10;6.45;;;;;;;19.46;40.62;101394.31;4905891;29;20313;-83
2022/04/16 09:18:04;;;;;;;8.75;5.03;;;;;;;19.38;41.27;101385.25;4927015;29;20502;-84
2022/04/16 09:20:34;;;;;;;8.68;6.10;;;;;;;19.67;41.21;101389.16;4897142;29;20159;-83
2022/04/16 09:23:02;;;;;;;11.90;5.88;;;;;;;19.61;40.77;101339.53;4915215;29;20111;-84
2022/04/16 09:25:31;;;;;;;11.48;6.78;;;;;;;19.77;40.32;101367.41;4913646;29;20470;-83
2022/04/16 09:28:06;;;;;;;11.18;6.72;;;;;;;20.08;39.77;101391.63;4910361;29;20142;-84
2022/04/16 09:30:33;;;;;;;14.63;6.70;;;;;;;20.11;40.32;101376.94;4926338;29;20052;-79
2022/04/16 09:33:01;;;;;;;8.73;6.63;;;;;;;19.72;40.45;101305.97;4912800;29;20054;-84
2022/04/16 09:35:33;;;;;;;11.63;7.47;;;;;;;20.19;40.00;101377.69;4929811;29;20058;-84
2022/04/16 09:38:12;;;;;;;12.07;7.03;;;;;;;20.32;39.70;101384.38;4930360;29;20059;-84
2022/04/16 09:40:39;;;;;;;9.45;6.05;;;;;;;20.39;39.62;101361.88;4930340;29;20351;-84
2022/04/16 09:43:07;;;;;;;8.20;6.55;;;;;;;20.32;39.91;101350.16;4929206;29;20087;-84
2022/04/16 09:45:38;;;;;;;9.55;6.75;;;;;;;20.40;39.50;101346.53;4929331;29;20504;-84
2022/04/16 09:48:10;;;;;;;13.77;7.97;;;;;;;20.53;39.46;101357.50;4922387;29;20059;-85
2022/04/16 09:50:38;;;;;;;11.30;7.10;;;;;;;20.72;39.68;101376.94;4910146;29;20058;-84
2022/04/16 09:53:06;;;;;;;12.65;7.78;;;;;;;20.96;39.62;101390.16;4894487;29;20151;-83
2022/04/16 09:55:35;;;;;;;9.63;7.10;;;;;;;20.96;39.79;101395.56;4910203;29;20144;-82
2022/04/16 09:58:05;;;;;;;13.18;8.32;;;;;;;21.29;39.73;101387.09;4909641;29;20489;-83
2022/04/16 10:00:34;;;;;;;13.00;8.30;;;;;;;20.79;39.21;101296.91;4925722;29;20052;-84
2022/04/16 10:03:20;;;;;;;12.15;7.60;;;;;;;21.26;39.51;101342.41;4907557;29;20294;-83
2022/04/16 10:05:48;;;;;;;11.10;7.38;;;;;;;21.29;39.93;101333.06;4891889;29;20059;-83
2022/04/16 10:08:17;;;;;;;10.00;7.20;;;;;;;21.54;39.92;101345.22;4894164;29;20683;-83
2022/04/16 10:10:52;;;;;;;15.60;7.63;;;;;;;21.70;39.40;101338.78;4893985;29;20056;-83
2022/04/16 10:13:20;;;;;;;11.73;7.88;;;;;;;22.11;39.01;101384.09;4909597;29;20131;-84
2022/04/16 10:15:57;;;;;;;12.93;8.07;;;;;;;22.22;38.01;101368.41;4909637;29;20498;-84
2022/04/16 10:18:25;;;;;;;9.65;7.60;;;;;;;22.40;38.17;101366.91;4909565;29;20064;-82
2022/04/16 10:20:53;;;;;;;11.65;7.53;;;;;;;22.51;38.24;101370.09;4909221;29;20058;-84
2022/04/16 10:23:30;;;;;;;14.60;8.85;;;;;;;22.44;38.25;101363.78;4908971;29;20044;-84
2022/04/16 10:26:02;;;;;;;10.55;7.22;;;;;;;22.26;37.86;101342.63;4909187;29;20060;-83
2022/04/16 10:29:03;;;;;;;13.15;6.72;;;;;;;22.56;37.48;101382.00;4893691;29;20506;-81
2022/04/16 10:31:32;;;;;;;9.35;6.63;;;;;;;22.38;37.71;101379.78;4897589;29;20068;-82
2022/04/16 10:34:05;;;;;;;9.18;6.78;;;;;;;22.52;37.14;101377.16;4909037;29;20068;-82
2022/04/16 10:36:37;;;;;;;10.55;5.40;;;;;;;22.45;37.95;101376.28;4924521;29;20040;-82
2022/04/16 10:39:13;;;;;;;8.05;6.18;;;;;;;22.69;37.07;101383.94;4893475;29;20062;-85
2022/04/16 10:41:39;;;;;;;15.05;6.00;;;;;;;22.03;37.77;101259.00;4929728;29;20048;-85
2022/04/16 10:44:09;;;;;;;6.85;4.78;;;;;;;22.86;37.41;101360.13;4926930;29;20063;-81
2022/04/16 10:46:44;;;;;;;15.93;5.85;;;;;;;23.12;37.25;101361.34;4892885;29;20482;-84
2022/04/16 10:49:16;;;;;;;10.52;4.80;;;;;;;23.09;37.42;101359.88;4892805;29;20062;-84
2022/04/16 10:51:44;;;;;;;9.35;4.75;;;;;;;23.23;37.70;101364.31;4893415;29;20052;-84
2022/04/16 10:54:13;;;;;;;8.77;5.18;;;;;;;23.27;36.76;101334.09;4894072;29;20547;-84
2022/04/16 10:56:44;;;;;;;7.53;5.80;;;;;;;23.50;36.61;101345.44;4908385;29;20139;-84
2022/04/16 10:59:11;;;;;;;7.38;6.13;;;;;;;23.62;36.43;101353.84;4923522;29;20058;-84
2022/04/16 11:01:38;;;;;;;10.63;5.80;;;;;;;23.03;36.46;101238.81;4909922;29;20420;-83
2022/04/16 11:04:13;;;;;;;6.60;5.75;;;;;;;23.74;37.36;101352.22;4908654;29;20071;-84
2022/04/16 11:06:45;;;;;;;7.57;5.60;;;;;;;23.64;37.81;101357.16;4908385;29;20562;-84
2022/04/16 11:09:15;;;;;;;7.20;5.60;;;;;;;23.78;37.89;101348.03;4908636;29;20063;-83
2022/04/16 11:11:49;;;;;;;9.63;4.93;;;;;;;23.89;38.30;101328.47;4909697;29;20135;-84
2022/04/16 11:14:17;;;;;;;5.53;4.60;;;;;;;23.91;38.41;101330.97;4908955;29;20263;-84
2022/04/16 11:16:46;;;;;;;5.55;3.42;;;;;;;24.18;38.15;101331.00;4909336;29;20056;-83
2022/04/16 11:19:15;;;;;;;4.28;3.08;;;;;;;24.27;38.18;101341.44;4916571;29;20132;-82
2022/04/16 11:21:43;;;;;;;5.00;3.17;;;;;;;24.09;37.20;101317.63;4926954;29;20059;-84
2022/04/16 11:24:10;;;;;;;4.47;2.83;;;;;;;24.19;37.43;101338.06;4927366;29;20091;-84
2022/04/16 11:35:01;;;;;;;7.15;3.33;;;;;;;24.35;37.63;101332.22;4928009;29;20056;-84
2022/04/16 11:37:32;;;;;;;3.88;3.20;;;;;;;24.34;38.00;101325.13;4918340;29;20052;-84
2022/04/16 11:40:05;;;;;;;4.88;2.63;;;;;;;24.49;38.14;101361.06;4915537;29;20516;-85
2022/04/16 11:42:33;;;;;;;4.75;2.72;;;;;;;24.67;37.53;101356.84;4927303;29;20056;-84
2022/04/16 11:44:59;;;;;;;5.05;2.80;;;;;;;24.40;36.08;101283.59;4926546;29;20449;-84
2022/04/16 11:47:29;;;;;;;3.60;2.25;;;;;;;24.67;35.89;101329.72;4927898;29;20477;-83
2022/04/16 11:50:05;;;;;;;4.53;2.33;;;;;;;25.07;35.57;101357.56;4911261;29;20147;-84
2022/04/16 11:52:34;;;;;;;2.13;1.83;;;;;;;25.02;34.92;101342.97;4905490;29;20040;-84
2022/04/16 11:55:05;;;;;;;2.80;2.30;;;;;;;25.07;35.04;101362.19;4891968;29;20048;-84
2022/04/16 11:57:32;;;;;;;4.25;2.17;;;;;;;25.14;34.92;101357.56;4920683;29;20107;-85